Time;durP1;ratioP1;P1;durP2;ratioP2;P2;SDS_P1;SDS_P2;PMS_P1;PMS_P2;Temp;Humidity;BMP_temperature;BMP_pressure;BME280_temperature;BME280_humidity;BME280_pressure;Samples;Min_cycle;Max_cycle;Signal;HPM_P1;HPM_P2
2021/12/15 00:00:39;;;;;;;32.97;14.48;;;;;;;0.16;100.00;95569.38;5087833;28;20493;-69
2021/12/15 00:03:07;;;;;;;27.30;13.43;;;;;;;0.16;100.00;95564.25;5087429;28;20047;-69
2021/12/15 00:05:34;;;;;;;35.58;12.75;;;;;;;0.17;100.00;95559.91;5088575;28;20040;-69
2021/12/15 00:08:04;;;;;;;34.95;15.35;;;;;;;0.23;100.00;95568.75;5073598;28;20043;-69
2021/12/15 00:10:31;;;;;;;31.02;11.07;;;;;;;0.23;100.00;95553.38;5088070;28;20428;-69
2021/12/15 00:12:58;;;;;;;27.63;11.57;;;;;;;0.23;100.00;95564.44;5084618;28;20478;-69
2021/12/15 00:15:28;;;;;;;29.30;12.35;;;;;;;0.16;100.00;95554.00;5085099;28;20452;-69
2021/12/15 00:17:57;;;;;;;35.22;14.85;;;;;;;0.21;100.00;95565.53;5086885;28;20058;-69
2021/12/15 00:20:25;;;;;;;30.92;9.85;;;;;;;0.11;100.00;95561.31;5089214;28;20050;-69
2021/12/15 00:22:52;;;;;;;33.13;13.30;;;;;;;0.24;100.00;95571.19;5091860;28;20051;-69
2021/12/15 00:25:23;;;;;;;28.88;11.98;;;;;;;0.17;100.00;95576.06;5089626;28;20513;-69
2021/12/15 00:27:51;;;;;;;26.23;11.88;;;;;;;0.23;100.00;95579.00;5104086;27;20099;-69
2021/12/15 00:30:19;;;;;;;38.55;16.55;;;;;;;0.05;100.00;95561.88;5085702;28;20505;-69
2021/12/15 00:32:46;;;;;;;27.67;12.13;;;;;;;0.15;100.00;95583.09;5072931;28;20581;-69
2021/12/15 00:35:13;;;;;;;40.60;13.30;;;;;;;-0.01;100.00;95568.41;5085823;28;20548;-69
2021/12/15 00:37:40;;;;;;;31.30;13.80;;;;;;;0.05;100.00;95572.13;5089027;28;20799;-69
2021/12/15 00:40:11;;;;;;;35.97;14.15;;;;;;;0.08;100.00;95576.97;5070414;28;20047;-69
2021/12/15 00:42:39;;;;;;;35.35;15.25;;;;;;;0.02;100.00;95587.81;5087876;28;20068;-69
2021/12/15 00:45:08;;;;;;;35.72;12.30;;;;;;;0.08;100.00;95584.66;5088776;28;20429;-69
2021/12/15 00:47:35;;;;;;;30.02;11.50;;;;;;;0.03;100.00;95563.78;5092054;28;20051;-69
2021/12/15 00:50:06;;;;;;;26.80;11.63;;;;;;;0.01;100.00;95565.69;5066489;28;20097;-69
2021/12/15 00:52:34;;;;;;;35.60;15.02;;;;;;;0.02;100.00;95567.31;5107852;27;20052;-70
2021/12/15 00:55:03;;;;;;;27.25;12.88;;;;;;;-0.03;100.00;95569.50;5086920;28;20039;-69
2021/12/15 00:57:30;;;;;;;37.95;12.65;;;;;;;-0.12;100.00;95560.94;5103738;27;20498;-68
2021/12/15 00:59:58;;;;;;;26.35;13.23;;;;;;;-0.16;100.00;95551.13;5072327;28;20514;-69
2021/12/15 01:02:25;;;;;;;26.83;11.93;;;;;;;-0.04;100.00;95567.91;5107901;27;20060;-69
2021/12/15 01:04:52;;;;;;;27.55;12.10;;;;;;;-0.03;100.00;95561.84;5087744;28;20065;-69
2021/12/15 01:07:19;;;;;;;21.65;11.10;;;;;;;-0.04;100.00;95573.00;5092936;28;20068;-69
2021/12/15 01:09:55;;;;;;;25.15;11.93;;;;;;;-0.15;100.00;95557.88;5091184;28;20502;-69
2021/12/15 01:20:42;;;;;;;28.40;12.55;;;;;;;-0.17;100.00;95567.47;5089390;28;20051;-69
2021/12/15 01:23:13;;;;;;;34.05;13.35;;;;;;;-0.13;100.00;95568.78;5087971;28;20032;-69
2021/12/15 01:25:47;;;;;;;33.33;14.02;;;;;;;-0.14;100.00;95567.19;5091543;28;20039;-69
2021/12/15 01:28:20;;;;;;;25.75;12.85;;;;;;;-0.23;100.00;95561.97;5074696;28;20053;-69
2021/12/15 01:30:48;;;;;;;26.83;11.13;;;;;;;-0.23;100.00;95576.53;5073825;28;20491;-68
2021/12/15 01:33:16;;;;;;;24.40;13.50;;;;;;;-0.32;100.00;95565.41;5093843;28;20781;-69
2021/12/15 01:35:47;;;;;;;28.48;13.13;;;;;;;-0.25;100.00;95566.44;5066928;28;20055;-70
2021/12/15 01:38:16;;;;;;;32.60;9.68;;;;;;;-0.26;100.00;95564.03;5094095;28;20036;-69
2021/12/15 01:40:45;;;;;;;33.35;12.52;;;;;;;-0.26;100.00;95569.94;5105907;27;20049;-69
2021/12/15 01:43:23;;;;;;;26.42;13.45;;;;;;;-0.15;100.00;95565.56;5093208;28;20135;-69
2021/12/15 01:48:55;;;;;;;30.08;12.93;;;;;;;-0.26;100.00;95564.81;5088354;28;20040;-69
2021/12/15 01:51:22;;;;;;;28.40;10.90;;;;;;;-0.20;100.00;95554.00;5086416;28;20039;-68
2021/12/15 01:53:49;;;;;;;20.60;9.82;;;;;;;-0.23;100.00;95567.09;5087666;28;20637;-69
2021/12/15 01:56:16;;;;;;;32.08;12.98;;;;;;;-0.12;100.00;95565.28;5085898;28;20050;-69
2021/12/15 01:58:43;;;;;;;21.38;10.80;;;;;;;-0.16;100.00;95558.81;5074770;28;20047;-69
2021/12/15 02:01:10;;;;;;;28.65;13.57;;;;;;;-0.29;100.00;95560.00;5091240;28;20237;-69
2021/12/15 02:03:39;;;;;;;26.73;11.68;;;;;;;-0.22;100.00;95566.16;5094976;28;20084;-68
2021/12/15 02:06:10;;;;;;;27.20;12.77;;;;;;;-0.18;100.00;95558.16;5092539;28;20501;-68
2021/12/15 02:08:38;;;;;;;31.60;14.23;;;;;;;-0.15;100.00;95565.56;5092685;28;20134;-68
2021/12/15 02:11:06;;;;;;;25.60;11.77;;;;;;;-0.12;100.00;95563.50;5095025;28;20116;-68
2021/12/15 02:13:33;;;;;;;25.13;12.55;;;;;;;-0.14;100.00;95556.94;5067334;28;20051;-69
2021/12/15 02:16:03;;;;;;;28.13;12.23;;;;;;;-0.14;100.00;95556.94;5092159;28;20038;-69
2021/12/15 02:18:43;;;;;;;27.77;13.15;;;;;;;-0.18;100.00;95550.47;5104879;27;20050;-69
2021/12/15 02:21:13;;;;;;;25.67;12.88;;;;;;;-0.28;100.00;95530.88;5074413;28;20108;-69
2021/12/15 02:23:47;;;;;;;28.10;12.13;;;;;;;-0.21;100.00;95538.78;5069214;28;20493;-69
2021/12/15 02:26:21;;;;;;;35.25;12.60;;;;;;;-0.14;100.00;95546.69;5072286;28;20127;-69
2021/12/15 02:28:54;;;;;;;18.88;9.32;;;;;;;-0.21;100.00;95547.25;5093258;28;20043;-69
2021/12/15 02:31:40;;;;;;;24.23;12.63;;;;;;;-0.20;100.00;95548.88;5092300;28;20093;-69
2021/12/15 02:39:32;;;;;;;22.50;10.50;;;;;;;-0.30;100.00;95553.25;5075731;28;19951;-69
2021/12/15 02:41:59;;;;;;;23.05;9.52;;;;;;;-0.31;100.00;95558.53;5071189;28;20097;-70
2021/12/15 02:44:27;;;;;;;24.48;11.70;;;;;;;-0.44;100.00;95552.00;5073216;28;20122;-69
2021/12/15 02:46:54;;;;;;;27.23;12.60;;;;;;;-0.51;100.00;95532.25;5094854;28;20043;-69
2021/12/15 02:49:27;;;;;;;22.10;11.27;;;;;;;-0.36;100.00;95558.97;5090127;28;20036;-69
2021/12/15 02:51:58;;;;;;;29.58;13.10;;;;;;;-0.48;100.00;95539.66;5089398;28;20036;-68
2021/12/15 02:54:26;;;;;;;22.90;11.40;;;;;;;-0.49;100.00;95554.19;5086840;28;20413;-69
2021/12/15 02:56:56;;;;;;;21.85;9.90;;;;;;;-0.47;100.00;95551.47;5086226;28;20409;-68
2021/12/15 02:59:30;;;;;;;23.00;11.38;;;;;;;-0.59;100.00;95543.22;5094308;28;20047;-70
2021/12/15 03:07:25;;;;;;;20.42;9.85;;;;;;;-0.54;100.00;95555.56;5095740;28;20046;-69
2021/12/15 03:15:32;;;;;;;16.35;6.53;;;;;;;-0.62;100.00;95534.06;5093828;28;20045;-68
2021/12/15 03:18:01;;;;;;;27.02;10.95;;;;;;;-0.55;100.00;95566.78;5091188;28;20050;-69
2021/12/15 03:20:46;;;;;;;20.48;9.90;;;;;;;-0.62;100.00;95551.97;5092543;28;20044;-68
2021/12/15 03:23:20;;;;;;;25.45;10.43;;;;;;;-0.48;100.00;95563.47;5095177;28;20040;-69
2021/12/15 03:25:47;;;;;;;19.23;9.40;;;;;;;-0.51;100.00;95566.31;5093406;28;20051;-69
2021/12/15 03:36:36;;;;;;;28.15;11.35;;;;;;;-0.60;100.00;95560.31;5093755;28;20043;-68
2021/12/15 03:39:06;;;;;;;28.63;10.05;;;;;;;-0.51;100.00;95575.75;5090008;28;20070;-69
2021/12/15 03:41:34;;;;;;;23.77;10.00;;;;;;;-0.57;100.00;95561.00;5094830;28;20046;-69
2021/12/15 03:44:03;;;;;;;20.73;9.45;;;;;;;-0.47;100.00;95574.53;5090198;28;21730;-69
2021/12/15 03:46:30;;;;;;;21.85;10.40;;;;;;;-0.53;100.00;95575.09;5092834;28;20106;-69
2021/12/15 03:48:57;;;;;;;18.95;9.07;;;;;;;-0.55;100.00;95569.31;5095515;28;20094;-69
2021/12/15 03:51:25;;;;;;;20.92;10.40;;;;;;;-0.68;100.00;95554.31;5095767;28;20047;-69
2021/12/15 03:53:52;;;;;;;24.08;12.25;;;;;;;-0.64;100.00;95571.78;5095872;28;20048;-69
2021/12/15 03:56:19;;;;;;;22.05;9.95;;;;;;;-0.55;100.00;95579.56;5091466;28;20040;-68
2021/12/15 03:58:46;;;;;;;20.10;9.50;;;;;;;-0.50;100.00;95588.41;5091564;28;20058;-69
2021/12/15 04:01:20;;;;;;;22.98;9.57;;;;;;;-0.49;100.00;95586.66;5090287;28;20044;-69
2021/12/15 04:03:52;;;;;;;19.48;8.57;;;;;;;-0.56;100.00;95583.84;5098249;28;20075;-69
2021/12/15 04:06:25;;;;;;;25.75;10.48;;;;;;;-0.53;100.00;95587.91;5094512;28;20044;-69
2021/12/15 04:08:54;;;;;;;16.80;9.30;;;;;;;-0.56;100.00;95585.63;5092877;28;20476;-69
2021/12/15 04:11:24;;;;;;;19.98;9.45;;;;;;;-0.54;100.00;95586.28;5095749;28;20113;-68
2021/12/15 04:13:52;;;;;;;21.30;9.45;;;;;;;-0.62;100.00;95585.25;5096634;28;20046;-70
2021/12/15 04:16:45;;;;;;;17.63;9.20;;;;;;;-0.69;100.00;95594.44;5093639;28;20040;-69
2021/12/15 04:19:16;;;;;;;21.73;8.88;;;;;;;-0.68;100.00;95606.28;5093286;28;20049;-69
2021/12/15 04:21:43;;;;;;;19.60;9.90;;;;;;;-0.67;100.00;95601.97;5093924;28;20401;-69
2021/12/15 04:24:13;;;;;;;23.20;11.05;;;;;;;-0.74;100.00;95591.50;5098195;28;20425;-69
2021/12/15 04:26:41;;;;;;;20.45;9.50;;;;;;;-0.67;100.00;95602.75;5091371;28;20048;-69
2021/12/15 04:29:08;;;;;;;14.07;7.07;;;;;;;-0.72;100.00;95599.84;5095008;28;20565;-69
2021/12/15 04:31:47;;;;;;;25.92;10.73;;;;;;;-0.65;100.00;95592.41;5098011;28;20905;-69
2021/12/15 04:34:14;;;;;;;13.20;7.80;;;;;;;-0.74;100.00;95591.50;5090702;28;20040;-69
2021/12/15 04:36:47;;;;;;;22.45;11.88;;;;;;;-0.73;100.00;95587.19;5097094;28;20035;-70
2021/12/15 04:39:22;;;;;;;25.92;9.52;;;;;;;-0.75;100.00;95583.97;5090254;28;20047;-69
2021/12/15 04:41:51;;;;;;;18.92;9.15;;;;;;;-0.82;100.00;95593.97;5094280;28;20063;-68
2021/12/15 04:44:22;;;;;;;17.67;7.95;;;;;;;-0.76;100.00;95608.72;5092881;28;20032;-69
2021/12/15 04:47:08;;;;;;;24.02;9.98;;;;;;;-0.76;100.00;95603.63;5074633;28;20123;-69
2021/12/15 04:49:40;;;;;;;16.63;7.50;;;;;;;-0.76;100.00;95598.50;5090551;28;21302;-68
2021/12/15 04:52:07;;;;;;;19.25;7.88;;;;;;;-0.80;100.00;95602.31;5092618;28;20051;-69
2021/12/15 04:54:35;;;;;;;9.77;6.68;;;;;;;-0.78;100.00;95605.53;5086889;28;20036;-69
2021/12/15 04:57:07;;;;;;;16.80;7.75;;;;;;;-0.74;100.00;95606.84;5089152;28;20040;-67
2021/12/15 04:59:35;;;;;;;17.92;8.07;;;;;;;-0.77;100.00;95612.25;5089647;28;20040;-68
2021/12/15 05:02:04;;;;;;;17.55;7.72;;;;;;;-0.79;100.00;95614.16;5091698;28;20477;-67
2021/12/15 05:04:31;;;;;;;25.00;9.45;;;;;;;-0.78;100.00;95631.91;5097504;28;20032;-68
2021/12/15 05:06:58;;;;;;;15.60;7.45;;;;;;;-0.79;100.00;95609.03;5096213;28;20047;-68
2021/12/15 05:09:26;;;;;;;17.90;7.45;;;;;;;-0.80;100.00;95618.44;5095695;28;20110;-67
2021/12/15 05:11:54;;;;;;;24.90;8.85;;;;;;;-0.80;100.00;95628.69;5096140;28;20040;-67
2021/12/15 05:14:23;;;;;;;14.70;7.82;;;;;;;-0.77;100.00;95620.72;5073413;28;20421;-67
2021/12/15 05:16:52;;;;;;;20.75;8.93;;;;;;;-0.79;100.00;95630.31;5090426;28;20078;-67
2021/12/15 05:19:19;;;;;;;14.13;8.02;;;;;;;-0.94;100.00;95613.78;5090912;28;20035;-67
2021/12/15 05:21:48;;;;;;;10.27;5.63;;;;;;;-0.89;100.00;95634.63;5096077;28;20046;-67
2021/12/15 05:24:30;;;;;;;19.95;7.75;;;;;;;-0.86;100.00;95623.34;5098453;28;20046;-67
2021/12/15 05:27:05;;;;;;;21.50;9.25;;;;;;;-0.98;100.00;95615.81;5091935;28;20043;-67
2021/12/15 05:29:33;;;;;;;18.13;8.82;;;;;;;-0.93;100.00;95617.97;5095059;28;20039;-67
2021/12/15 05:32:00;;;;;;;17.45;7.82;;;;;;;-1.00;100.00;95604.94;5092190;28;20044;-67
2021/12/15 05:34:27;;;;;;;19.60;8.75;;;;;;;-0.97;100.00;95622.56;5090150;28;20417;-67
2021/12/15 05:36:54;;;;;;;19.92;10.32;;;;;;;-0.90;100.00;95627.09;5089938;28;20044;-67
2021/12/15 05:39:23;;;;;;;15.88;8.00;;;;;;;-0.94;100.00;95636.00;5086708;28;20039;-67
2021/12/15 05:41:52;;;;;;;14.40;6.90;;;;;;;-0.96;100.00;95634.38;5091203;28;20059;-67
2021/12/15 05:44:20;;;;;;;17.30;7.20;;;;;;;-0.96;100.00;95631.03;5089934;28;20131;-68
2021/12/15 05:46:48;;;;;;;18.58;7.78;;;;;;;-0.92;100.00;95641.78;5093532;28;20036;-68
2021/12/15 05:49:14;;;;;;;19.13;9.23;;;;;;;-0.94;100.00;95638.56;5090899;28;20049;-69
2021/12/15 05:51:41;;;;;;;20.95;7.38;;;;;;;-1.02;100.00;95634.16;5092462;28;20417;-69
2021/12/15 05:54:09;;;;;;;17.90;9.07;;;;;;;-0.94;100.00;95643.69;5089521;28;20051;-66
2021/12/15 05:56:39;;;;;;;15.90;7.30;;;;;;;-1.10;100.00;95627.16;5090786;28;20489;-66
2021/12/15 05:59:06;;;;;;;16.75;7.50;;;;;;;-1.00;100.00;95647.59;5089523;28;20465;-67
2021/12/15 06:01:34;;;;;;;17.33;9.65;;;;;;;-1.07;100.00;95642.22;5089591;28;20039;-66
2021/12/15 06:04:01;;;;;;;24.73;5.97;;;;;;;-1.13;100.00;95622.34;5089276;28;20039;-66
2021/12/15 06:06:28;;;;;;;13.85;8.07;;;;;;;-1.04;100.00;95641.97;5088370;28;20044;-66
2021/12/15 06:08:56;;;;;;;21.05;8.68;;;;;;;-0.94;100.00;95651.34;5092851;28;20143;-67
2021/12/15 06:11:23;;;;;;;19.48;8.45;;;;;;;-0.97;100.00;95637.91;5089489;28;20070;-66
2021/12/15 06:13:52;;;;;;;9.90;6.25;;;;;;;-0.90;100.00;95637.31;5098056;28;20070;-67
2021/12/15 06:16:22;;;;;;;14.40;6.88;;;;;;;-0.94;100.00;95641.13;5088299;28;22176;-67
2021/12/15 06:18:51;;;;;;;24.75;8.13;;;;;;;-0.90;100.00;95657.78;5092967;28;20046;-66
2021/12/15 06:21:21;;;;;;;16.30;9.38;;;;;;;-0.89;100.00;95656.84;5094835;28;20043;-67
2021/12/15 06:23:49;;;;;;;22.67;8.23;;;;;;;-0.87;100.00;95647.28;5091149;28;20040;-67
2021/12/15 06:26:18;;;;;;;13.10;7.70;;;;;;;-0.94;100.00;95646.22;5094588;28;20038;-66
2021/12/15 06:28:46;;;;;;;20.02;8.82;;;;;;;-0.92;100.00;95657.91;5090505;28;20049;-67
2021/12/15 06:31:16;;;;;;;14.48;7.75;;;;;;;-0.96;100.00;95652.28;5091585;28;20501;-67
2021/12/15 06:33:44;;;;;;;13.20;6.57;;;;;;;-0.90;100.00;95657.78;5087774;28;20040;-66
2021/12/15 06:36:13;;;;;;;19.58;8.23;;;;;;;-0.99;100.00;95646.63;5093546;28;20035;-67
2021/12/15 06:38:45;;;;;;;18.13;9.07;;;;;;;-0.92;100.00;95649.47;5093627;28;20059;-66
2021/12/15 06:41:14;;;;;;;13.43;7.90;;;;;;;-0.82;100.00;95665.59;5090680;28;20125;-66
2021/12/15 06:43:48;;;;;;;15.77;6.82;;;;;;;-0.87;100.00;95670.31;5090212;28;20044;-66
2021/12/15 07:00:12;;;;;;;20.25;7.43;;;;;;;-0.91;100.00;95676.66;5095601;28;20902;-67
2021/12/15 07:02:41;;;;;;;15.75;7.22;;;;;;;-0.99;100.00;95655.13;5096520;28;20044;-67
2021/12/15 07:05:10;;;;;;;14.25;6.90;;;;;;;-0.88;100.00;95668.69;5097694;28;20093;-67
2021/12/15 07:07:39;;;;;;;15.00;6.65;;;;;;;-0.80;100.00;95679.03;5095395;28;20062;-66
2021/12/15 07:10:08;;;;;;;12.68;6.35;;;;;;;-0.81;100.00;95673.13;5100984;28;20493;-66
2021/12/15 07:12:35;;;;;;;8.40;5.30;;;;;;;-0.88;100.00;95671.25;5095893;28;20036;-67
2021/12/15 07:15:04;;;;;;;13.82;7.18;;;;;;;-0.82;100.00;95691.97;5099195;28;20115;-67
2021/12/15 07:17:31;;;;;;;14.38;7.38;;;;;;;-0.91;100.00;95680.00;5091490;28;20128;-66
2021/12/15 07:25:13;;;;;;;14.75;5.50;;;;;;;-0.76;100.00;95698.25;5094209;28;20071;-67
2021/12/15 07:27:41;;;;;;;18.63;8.65;;;;;;;-0.93;100.00;95663.19;5100124;28;20047;-69
2021/12/15 07:30:09;;;;;;;14.13;6.70;;;;;;;-0.74;100.00;95698.94;5095711;28;20050;-68
2021/12/15 07:32:37;;;;;;;15.95;7.78;;;;;;;-0.68;100.00;95708.63;5093833;28;20126;-69
2021/12/15 07:35:05;;;;;;;24.17;8.90;;;;;;;-0.67;100.00;95699.19;5095630;28;20057;-69
2021/12/15 07:37:32;;;;;;;17.98;8.77;;;;;;;-0.67;100.00;95699.19;5097347;28;20058;-66
2021/12/15 07:40:01;;;;;;;21.80;8.73;;;;;;;-0.62;100.00;95702.13;5093888;28;20047;-67
2021/12/15 07:43:24;;;;;;;10.00;6.32;;;;;;;-0.74;100.00;95698.94;5100019;28;20039;-67
2021/12/15 07:45:20;;;;;;;15.93;8.43;;;;;;;-0.74;100.00;95683.59;5086445;28;20084;-67
2021/12/15 07:47:47;;;;;;;19.17;8.98;;;;;;;-0.51;100.00;95713.94;5095215;28;20088;-67
2021/12/15 07:50:14;;;;;;;17.63;8.07;;;;;;;-0.62;100.00;95713.16;5094145;28;20120;-67
2021/12/15 07:52:41;;;;;;;16.20;8.75;;;;;;;-0.65;100.00;95716.03;5098286;28;20047;-67
2021/12/15 07:55:08;;;;;;;14.05;6.50;;;;;;;-0.56;100.00;95711.00;5095968;28;20142;-67
2021/12/15 07:57:37;;;;;;;18.05;9.85;;;;;;;-0.63;100.00;95711.56;5093078;28;20520;-67
2021/12/15 08:00:05;;;;;;;15.95;7.80;;;;;;;-0.59;100.00;95719.78;5094368;28;20067;-69
2021/12/15 08:02:38;;;;;;;14.48;7.28;;;;;;;-0.64;100.00;95720.19;5094618;28;20127;-66
2021/12/15 08:05:06;;;;;;;13.68;7.35;;;;;;;-0.55;100.00;95722.88;5089181;28;20047;-67
2021/12/15 08:07:33;;;;;;;17.92;9.43;;;;;;;-0.61;100.00;95719.91;5089294;28;20119;-69
2021/12/15 08:10:06;;;;;;;15.55;8.93;;;;;;;-0.53;100.00;95731.22;5093454;28;20079;-69
2021/12/15 08:12:33;;;;;;;17.35;9.40;;;;;;;-0.45;100.00;95733.84;5107369;27;20051;-67
2021/12/15 08:15:00;;;;;;;19.38;10.35;;;;;;;-0.42;100.00;95741.25;5098388;28;20039;-69
2021/12/15 08:17:27;;;;;;;22.00;11.30;;;;;;;-0.44;100.00;95727.81;5095010;28;20039;-70
2021/12/15 08:19:54;;;;;;;24.48;14.07;;;;;;;-0.52;100.00;95718.28;5098023;28;20126;-67
2021/12/15 08:22:21;;;;;;;19.63;8.52;;;;;;;-0.51;100.00;95716.50;5094762;28;20043;-70
2021/12/15 08:24:48;;;;;;;20.88;10.70;;;;;;;-0.44;100.00;95735.47;5089841;28;20410;-69
2021/12/15 08:27:20;;;;;;;19.90;10.85;;;;;;;-0.67;100.00;95723.00;5090094;28;20040;-69
2021/12/15 08:29:47;;;;;;;41.60;17.92;;;;;;;-0.62;100.00;95717.50;5092422;28;20141;-68
2021/12/15 08:32:14;;;;;;;51.92;20.88;;;;;;;-0.47;100.00;95735.75;5090128;28;20436;-69
2021/12/15 08:34:42;;;;;;;42.78;22.48;;;;;;;-0.49;100.00;95737.66;5092788;28;20089;-69
2021/12/15 08:37:13;;;;;;;34.28;17.40;;;;;;;-0.44;100.00;95750.84;5090893;28;20044;-69
2021/12/15 08:39:42;;;;;;;39.45;18.63;;;;;;;-0.41;100.00;95755.69;5090938;28;20420;-70
2021/12/15 08:42:10;;;;;;;18.90;10.35;;;;;;;-0.50;100.00;95751.41;5089883;28;20413;-70
2021/12/15 08:44:38;;;;;;;29.98;13.95;;;;;;;-0.46;100.00;95745.84;5094956;28;20414;-69
2021/12/15 08:47:07;;;;;;;13.63;8.38;;;;;;;-0.49;100.00;95758.91;5091073;28;20059;-69
2021/12/15 08:49:35;;;;;;;30.73;11.32;;;;;;;-0.45;100.00;95749.22;5090814;28;20044;-69
2021/12/15 08:52:04;;;;;;;24.98;9.05;;;;;;;-0.38;100.00;95750.25;5094164;28;20056;-70
2021/12/15 08:54:31;;;;;;;17.35;8.00;;;;;;;-0.38;100.00;95755.38;5096114;28;20509;-70
2021/12/15 08:56:58;;;;;;;20.70;8.10;;;;;;;-0.40;100.00;95753.00;5089804;28;20036;-69
2021/12/15 08:59:25;;;;;;;23.50;9.48;;;;;;;-0.34;100.00;95751.63;5088900;28;20040;-70
2021/12/15 09:01:54;;;;;;;24.40;10.63;;;;;;;-0.49;100.00;95743.56;5092286;28;20036;-69
2021/12/15 09:04:21;;;;;;;18.60;10.30;;;;;;;-0.50;100.00;95730.94;5088603;28;20040;-70
2021/12/15 09:06:49;;;;;;;15.57;8.60;;;;;;;-0.42;100.00;95756.63;5090215;28;20032;-69
2021/12/15 09:09:20;;;;;;;10.82;5.75;;;;;;;-0.56;100.00;95746.81;5089229;28;20040;-69
2021/12/15 09:11:49;;;;;;;19.25;8.95;;;;;;;-0.42;100.00;95756.63;5098181;28;20075;-69
2021/12/15 09:14:17;;;;;;;15.88;8.85;;;;;;;-0.35;100.00;95755.13;5071686;28;20040;-70
2021/12/15 09:16:46;;;;;;;18.17;8.38;;;;;;;-0.27;100.00;95754.41;5088000;28;20478;-69
2021/12/15 09:19:14;;;;;;;17.08;8.70;;;;;;;-0.39;100.00;95748.66;5090306;28;20421;-69
2021/12/15 09:21:42;;;;;;;13.52;7.45;;;;;;;-0.31;100.00;95765.88;5087487;28;20463;-69
2021/12/15 09:24:11;;;;;;;14.77;7.88;;;;;;;-0.30;100.00;95758.06;5089267;28;20083;-70
2021/12/15 09:26:38;;;;;;;21.58;10.35;;;;;;;-0.23;100.00;95751.44;5098461;28;20053;-69
2021/12/15 09:29:06;;;;;;;16.77;8.55;;;;;;;-0.31;100.00;95753.88;5094960;28;20074;-69
2021/12/15 09:31:34;;;;;;;21.45;8.95;;;;;;;-0.23;100.00;95743.75;5093937;28;20129;-70
2021/12/15 09:34:02;;;;;;;16.48;7.05;;;;;;;-0.29;100.00;95739.22;5089928;28;20128;-69
2021/12/15 09:36:29;;;;;;;15.27;7.78;;;;;;;-0.28;100.00;95740.81;5091472;28;20051;-69
2021/12/15 09:39:05;;;;;;;19.20;8.15;;;;;;;-0.24;100.00;95747.25;5107568;27;20609;-69
2021/12/15 09:41:33;;;;;;;10.43;5.45;;;;;;;-0.20;100.00;95752.88;5091476;28;20040;-70
2021/12/15 09:44:06;;;;;;;20.05;8.90;;;;;;;-0.14;100.00;95751.53;5095101;28;20090;-69
2021/12/15 10:03:13;;;;;;;12.35;7.55;;;;;;;-0.21;100.00;95735.94;5088669;28;20040;-70
2021/12/15 10:05:49;;;;;;;14.13;6.97;;;;;;;-0.06;100.00;95738.81;5081171;28;20072;-70
2021/12/15 10:19:43;;;;;;;14.73;6.30;;;;;;;-0.11;100.00;95735.88;5091504;28;20493;-69
2021/12/15 10:22:28;;;;;;;20.73;10.35;;;;;;;-0.02;100.00;95743.53;5092310;28;20122;-70
2021/12/15 10:24:57;;;;;;;19.27;9.75;;;;;;;-0.09;100.00;95734.81;5092181;28;20042;-69
2021/12/15 10:27:37;;;;;;;15.15;8.07;;;;;;;-0.18;100.00;95739.94;5090525;28;20032;-68
2021/12/15 10:30:22;;;;;;;18.38;8.48;;;;;;;-0.08;100.00;95735.59;5089123;28;20036;-69
2021/12/15 10:32:56;;;;;;;16.50;7.20;;;;;;;-0.25;100.00;95732.84;5090905;28;20063;-69
2021/12/15 10:35:28;;;;;;;16.25;7.88;;;;;;;-0.12;100.00;95734.28;5087383;28;20047;-69
2021/12/15 10:38:25;;;;;;;13.48;6.53;;;;;;;-0.11;100.00;95730.75;5093841;28;20145;-68
2021/12/15 10:41:11;;;;;;;15.35;8.18;;;;;;;-0.11;100.00;95730.75;5094244;28;20044;-69
2021/12/15 10:43:43;;;;;;;17.73;8.88;;;;;;;-0.13;100.00;95728.34;5089867;28;20569;-69
2021/12/15 10:46:17;;;;;;;16.77;9.43;;;;;;;-0.11;100.00;95720.50;5089942;28;20565;-68
2021/12/15 10:48:57;;;;;;;18.55;9.10;;;;;;;-0.05;100.00;95717.41;5090902;28;20496;-69
2021/12/15 10:52:05;;;;;;;15.57;7.25;;;;;;;-0.10;100.00;95737.50;5092208;28;20119;-69
2021/12/15 10:54:50;;;;;;;22.63;10.73;;;;;;;-0.15;100.00;95732.78;5040361;28;20051;-69
2021/12/15 10:57:34;;;;;;;20.98;10.45;;;;;;;-0.03;100.00;95730.88;5039043;28;20068;-69
2021/12/15 11:00:01;;;;;;;24.80;10.75;;;;;;;0.00;100.00;95733.16;5075228;28;20429;-68
2021/12/15 11:02:38;;;;;;;25.25;13.02;;;;;;;0.13;100.00;95731.03;5087613;28;20064;-68
2021/12/15 11:05:10;;;;;;;24.42;10.40;;;;;;;0.22;100.00;95736.22;5088836;28;20123;-69
2021/12/15 11:07:52;;;;;;;18.00;8.90;;;;;;;0.25;100.00;95728.25;5092765;28;20040;-68
2021/12/15 11:10:35;;;;;;;21.58;9.13;;;;;;;0.27;100.00;95718.69;5090673;28;20473;-69
2021/12/15 11:13:11;;;;;;;16.35;7.95;;;;;;;0.26;100.00;95735.00;5089845;28;20040;-68
2021/12/15 11:15:42;;;;;;;16.75;7.40;;;;;;;0.14;100.00;95730.06;5092611;28;20067;-69
2021/12/15 11:18:21;;;;;;;20.02;10.15;;;;;;;0.14;100.00;95732.63;5088922;28;20115;-70
2021/12/15 11:20:57;;;;;;;16.60;9.23;;;;;;;0.08;100.00;95715.28;5089165;28;20138;-69
2021/12/15 11:23:26;;;;;;;16.63;7.00;;;;;;;0.18;100.00;95723.72;5092690;28;20496;-69
2021/12/15 11:26:15;;;;;;;16.90;7.85;;;;;;;0.15;100.00;95731.69;5080014;28;20036;-69
2021/12/15 11:28:42;;;;;;;17.20;7.38;;;;;;;0.19;100.00;95733.00;5099108;28;20051;-69
2021/12/15 11:31:14;;;;;;;21.65;9.63;;;;;;;0.30;100.00;95718.41;5096556;28;20118;-70
2021/12/15 11:33:44;;;;;;;20.00;10.30;;;;;;;0.37;100.00;95719.44;5078239;28;20059;-69
2021/12/15 11:36:32;;;;;;;18.92;9.05;;;;;;;0.21;100.00;95732.06;5095208;28;20096;-68
2021/12/15 11:38:59;;;;;;;20.48;8.93;;;;;;;0.24;100.00;95724.09;5095415;28;20481;-70
2021/12/15 11:41:30;;;;;;;11.18;7.40;;;;;;;0.27;100.00;95713.56;5094534;28;20048;-69
2021/12/15 11:43:58;;;;;;;19.73;9.98;;;;;;;0.40;100.00;95714.03;5086850;28;20135;-69
2021/12/15 11:46:48;;;;;;;23.92;10.85;;;;;;;0.31;100.00;95699.53;5095941;28;20480;-69
2021/12/15 11:49:22;;;;;;;22.38;12.23;;;;;;;0.30;100.00;95703.81;5089402;28;21616;-70
2021/12/15 11:51:56;;;;;;;28.58;11.95;;;;;;;0.37;100.00;95709.16;5097943;28;20048;-69
2021/12/15 11:54:35;;;;;;;21.20;11.18;;;;;;;0.31;100.00;95713.13;5092922;28;20134;-69
2021/12/15 11:57:19;;;;;;;27.10;11.45;;;;;;;0.35;100.00;95705.97;5096328;28;20070;-70
2021/12/15 11:59:53;;;;;;;20.03;9.50;;;;;;;0.37;100.00;95698.94;5098168;28;20054;-69
2021/12/15 12:02:24;;;;;;;23.13;12.43;;;;;;;0.32;100.00;95701.13;5092291;28;20532;-69
2021/12/15 12:04:56;;;;;;;29.92;13.52;;;;;;;0.42;100.00;95691.59;5097126;28;20046;-70
2021/12/15 12:07:47;;;;;;;25.10;11.25;;;;;;;0.36;100.00;95693.00;5092177;28;20043;-69
2021/12/15 12:10:28;;;;;;;26.52;13.82;;;;;;;0.41;100.00;95694.31;5090997;28;20131;-70
2021/12/15 12:13:08;;;;;;;25.60;12.10;;;;;;;0.43;100.00;95697.53;5095071;28;20044;-70
2021/12/15 12:15:38;;;;;;;18.42;9.38;;;;;;;0.41;100.00;95709.69;5090898;28;20074;-69
2021/12/15 12:18:18;;;;;;;19.85;8.95;;;;;;;0.34;100.00;95692.34;5092833;28;20481;-69
2021/12/15 12:20:49;;;;;;;21.67;10.80;;;;;;;0.39;100.00;95697.00;5091747;28;20054;-70
2021/12/15 12:23:21;;;;;;;21.63;12.27;;;;;;;0.49;100.00;95692.63;5070829;28;20047;-70
2021/12/15 12:25:51;;;;;;;26.05;12.45;;;;;;;0.36;100.00;95671.66;5085292;28;20048;-70
2021/12/15 12:28:23;;;;;;;20.30;11.00;;;;;;;0.37;100.00;95701.47;5091719;28;20075;-69
2021/12/15 12:31:02;;;;;;;25.38;13.15;;;;;;;0.49;100.00;95708.00;5088591;28;20040;-69
2021/12/15 12:33:30;;;;;;;25.80;12.50;;;;;;;0.40;100.00;95708.88;5087775;28;20032;-69
2021/12/15 12:36:11;;;;;;;23.20;12.95;;;;;;;0.43;100.00;95702.66;5090515;28;20486;-69
2021/12/15 12:38:46;;;;;;;23.23;12.70;;;;;;;0.54;100.00;95705.81;5089199;28;20070;-69
2021/12/15 12:41:18;;;;;;;24.67;11.27;;;;;;;0.55;100.00;95701.50;5074331;28;20048;-69
2021/12/15 12:43:51;;;;;;;20.83;10.68;;;;;;;0.46;100.00;95704.94;5092796;28;20080;-69
2021/12/15 12:46:44;;;;;;;22.00;11.40;;;;;;;0.40;100.00;95703.75;5087083;28;20079;-69
2021/12/15 13:00:43;;;;;;;14.88;7.95;;;;;;;0.37;100.00;95657.91;5089295;28;20063;-70
2021/12/15 13:03:18;;;;;;;18.15;8.27;;;;;;;0.41;100.00;95678.94;5087949;28;20065;-69
2021/12/15 13:05:58;;;;;;;20.02;10.32;;;;;;;0.43;100.00;95688.06;5091591;28;20141;-69
2021/12/15 13:08:40;;;;;;;19.33;10.15;;;;;;;0.45;100.00;95693.88;5086851;28;20093;-69